createdAt,value
2023-02-24T00:02:17.983Z,0.70
2023-02-24T00:04:52.206Z,0.80
2023-02-24T00:07:21.477Z,0.70
2023-02-24T00:09:50.379Z,0.80
2023-02-24T00:12:21.290Z,0.80
2023-02-24T00:14:50.145Z,0.80
2023-02-24T00:17:19.057Z,0.80
2023-02-24T00:19:47.909Z,0.80
2023-02-24T00:22:16.741Z,0.80
2023-02-24T00:24:45.535Z,0.80
2023-02-24T00:27:14.421Z,0.80
2023-02-24T00:29:46.418Z,0.80
2023-02-24T00:32:15.493Z,0.80
2023-02-24T00:34:44.686Z,0.70
2023-02-24T00:37:16.075Z,0.80
2023-02-24T00:39:46.589Z,0.70
2023-02-24T00:42:15.565Z,0.80
2023-02-24T00:44:48.585Z,0.80
2023-02-24T00:47:18.206Z,0.80
2023-02-24T00:49:47.284Z,0.80
2023-02-24T00:52:19.642Z,0.80
2023-02-24T00:54:50.642Z,0.80
2023-02-24T00:57:21.789Z,0.80
2023-02-24T00:59:54.610Z,0.80
2023-02-24T01:02:24.497Z,0.70
2023-02-24T01:04:55.114Z,0.80
2023-02-24T01:07:23.936Z,0.70
2023-02-24T01:09:52.756Z,0.70
2023-02-24T01:12:50.025Z,0.70
2023-02-24T01:15:22.077Z,0.70
2023-02-24T01:17:51.131Z,0.70
2023-02-24T01:20:20.380Z,0.70
2023-02-24T01:22:51.692Z,0.60
2023-02-24T01:25:23.697Z,0.60
2023-02-24T01:27:54.335Z,0.60
2023-02-24T01:30:23.385Z,0.60
2023-02-24T01:32:52.606Z,0.60
2023-02-24T01:35:21.659Z,0.60
2023-02-24T01:37:50.592Z,0.60
2023-02-24T01:40:21.973Z,0.52
2023-02-24T01:42:51.303Z,0.50
2023-02-24T01:45:27.218Z,0.50
2023-02-24T01:48:03.841Z,0.50
2023-02-24T01:50:36.578Z,0.50
2023-02-24T01:53:07.987Z,0.50
2023-02-24T01:55:50.512Z,0.50
2023-02-24T01:58:30.960Z,0.50
2023-02-24T02:01:01.076Z,0.50
2023-02-24T02:03:42.216Z,0.57
2023-02-24T02:06:14.683Z,0.50
2023-02-24T02:08:44.172Z,0.52
2023-02-24T02:11:21.215Z,0.50
2023-02-24T02:13:53.175Z,0.50
2023-02-24T02:16:42.718Z,0.50
2023-02-24T02:19:40.911Z,0.50
2023-02-24T02:22:31.988Z,0.50
2023-02-24T02:25:17.636Z,0.50
2023-02-24T02:27:48.214Z,0.50
2023-02-24T02:30:44.475Z,0.50
2023-02-24T02:33:41.181Z,0.50
2023-02-24T02:39:12.665Z,0.50
2023-02-24T02:42:02.721Z,0.50
2023-02-24T02:44:48.173Z,0.50
2023-02-24T02:47:35.577Z,0.50
2023-02-24T02:50:13.629Z,0.50
2023-02-24T02:52:54.876Z,0.50
2023-02-24T02:56:14.157Z,0.50
2023-02-24T02:58:48.860Z,0.50
2023-02-24T03:01:29.037Z,0.50
2023-02-24T03:04:05.313Z,0.50
2023-02-24T03:06:57.883Z,0.50
2023-02-24T03:09:33.271Z,0.50
2023-02-24T03:12:09.307Z,0.50
2023-02-24T03:14:51.674Z,0.50
2023-02-24T03:17:25.131Z,0.50
2023-02-24T03:20:16.730Z,0.50
2023-02-24T03:23:11.782Z,0.50
2023-02-24T03:25:47.440Z,0.50
2023-02-24T03:28:29.771Z,0.50
2023-02-24T03:31:11.663Z,0.50
2023-02-24T03:34:04.345Z,0.50
2023-02-24T03:36:33.848Z,0.50
2023-02-24T03:39:05.193Z,0.45
2023-02-24T03:41:54.869Z,0.50
2023-02-24T03:44:25.850Z,0.50
2023-02-24T03:46:56.536Z,0.50
2023-02-24T03:49:25.932Z,0.50
2023-02-24T03:52:22.063Z,0.50
2023-02-24T03:55:02.371Z,0.50
2023-02-24T03:57:55.808Z,0.50
2023-02-24T04:01:11.430Z,0.50
2023-02-24T04:04:01.471Z,0.50
2023-02-24T04:06:46.235Z,0.50
2023-02-24T04:09:38.400Z,0.50
2023-02-24T04:12:36.077Z,0.50
2023-02-24T04:15:25.422Z,0.50
2023-02-24T04:18:01.832Z,0.50
2023-02-24T04:20:37.839Z,0.50
2023-02-24T04:23:12.174Z,1.30
2023-02-24T04:25:45.445Z,0.50
2023-02-24T04:28:19.476Z,0.50
2023-02-24T04:30:52.733Z,0.50
2023-02-24T04:33:22.193Z,0.50
2023-02-24T04:35:53.973Z,0.47
2023-02-24T04:38:24.333Z,0.50
2023-02-24T04:40:53.433Z,0.40
2023-02-24T04:43:22.229Z,0.50
2023-02-24T04:45:52.246Z,0.43
2023-02-24T04:48:21.068Z,0.50
2023-02-24T04:50:55.620Z,0.50
2023-02-24T04:53:27.718Z,0.50
2023-02-24T04:55:57.260Z,0.50
2023-02-24T04:58:28.710Z,0.50
2023-02-24T05:00:58.516Z,0.50
2023-02-24T05:03:29.028Z,0.50
2023-02-24T05:06:03.367Z,0.50
2023-02-24T05:08:32.726Z,0.50
2023-02-24T05:11:04.542Z,0.50
2023-02-24T05:13:34.436Z,0.55
2023-02-24T05:16:10.171Z,0.43
2023-02-24T05:18:39.270Z,0.50
2023-02-24T05:21:28.803Z,0.50
2023-02-24T05:24:07.310Z,0.60
2023-02-24T05:26:38.099Z,0.50
2023-02-24T05:29:08.616Z,0.40
2023-02-24T05:31:38.252Z,0.50
2023-02-24T05:34:09.168Z,0.50
2023-02-24T05:36:41.065Z,0.40
2023-02-24T05:39:15.233Z,0.45
2023-02-24T05:41:44.276Z,0.47
2023-02-24T05:44:16.405Z,0.50
2023-02-24T05:46:47.248Z,0.40
2023-02-24T05:49:27.550Z,0.43
2023-02-24T05:51:58.372Z,0.43
2023-02-24T05:54:33.359Z,0.43
2023-02-24T05:57:05.901Z,0.50
2023-02-24T05:59:35.333Z,0.40
2023-02-24T06:02:12.295Z,0.40
2023-02-24T06:04:54.477Z,0.50
2023-02-24T06:07:29.285Z,0.50
2023-02-24T06:10:00.771Z,0.50
2023-02-24T06:12:34.501Z,0.43
2023-02-24T06:15:08.218Z,0.50
2023-02-24T06:17:37.127Z,0.50
2023-02-24T06:20:15.719Z,0.40
2023-02-24T06:22:44.690Z,0.50
2023-02-24T06:25:13.824Z,0.50
2023-02-24T06:27:43.821Z,0.45
2023-02-24T06:30:13.521Z,0.40
2023-02-24T06:32:42.483Z,0.50
2023-02-24T06:35:13.405Z,0.47
2023-02-24T06:37:42.469Z,0.50
2023-02-24T06:40:20.840Z,0.50
2023-02-24T06:42:54.588Z,0.50
2023-02-24T06:45:24.991Z,0.50
2023-02-24T06:47:53.980Z,0.50
2023-02-24T06:50:23.944Z,0.40
2023-02-24T06:52:56.238Z,0.40
2023-02-24T06:55:28.271Z,0.40
2023-02-24T06:57:59.417Z,0.43
2023-02-24T07:00:39.603Z,0.88
2023-02-24T07:03:17.385Z,0.45
2023-02-24T07:05:51.187Z,0.40
2023-02-24T07:08:23.385Z,0.40
2023-02-24T07:10:58.635Z,0.40
2023-02-24T07:13:31.706Z,0.43
2023-02-24T07:16:07.570Z,0.40
2023-02-24T07:18:37.753Z,0.43
2023-02-24T07:21:11.997Z,0.40
2023-02-24T07:23:42.389Z,0.40
2023-02-24T07:26:17.617Z,0.40
2023-02-24T07:28:48.646Z,0.40
2023-02-24T07:31:21.648Z,0.50
2023-02-24T07:33:56.243Z,0.43
2023-02-24T07:36:30.638Z,0.40
2023-02-24T07:39:00.242Z,0.50
2023-02-24T07:41:31.273Z,0.50
2023-02-24T07:44:03.824Z,0.40
2023-02-24T07:46:32.998Z,0.40
2023-02-24T07:49:03.679Z,0.40
2023-02-24T07:51:32.484Z,0.45
2023-02-24T07:54:02.700Z,0.40
2023-02-24T07:56:33.521Z,0.40
2023-02-24T07:59:08.600Z,0.40
2023-02-24T08:01:50.297Z,0.35
2023-02-24T08:04:21.632Z,0.40
2023-02-24T08:06:56.694Z,0.40
2023-02-24T08:09:46.565Z,0.40
2023-02-24T08:12:18.636Z,0.40
2023-02-24T08:14:52.607Z,0.40
2023-02-24T08:17:24.622Z,0.40
2023-02-24T08:20:15.397Z,0.40
2023-02-24T08:22:47.394Z,0.30
2023-02-24T08:25:19.734Z,0.40
2023-02-24T08:28:12.148Z,0.38
2023-02-24T08:30:46.404Z,0.40
2023-02-24T08:33:22.613Z,0.40
2023-02-24T08:35:58.542Z,0.30
2023-02-24T08:38:40.484Z,0.40
2023-02-24T08:41:18.686Z,0.40
2023-02-24T08:43:49.530Z,0.40
2023-02-24T08:46:26.725Z,0.40
2023-02-24T08:49:03.493Z,0.40
2023-02-24T08:51:38.009Z,0.40
2023-02-24T08:54:16.202Z,0.40
2023-02-24T08:56:49.645Z,0.32
2023-02-24T08:59:37.538Z,0.40
2023-02-24T09:02:25.178Z,0.40
2023-02-24T09:05:05.841Z,0.40
2023-02-24T09:07:41.414Z,0.40
2023-02-24T09:10:18.392Z,0.40
2023-02-24T09:15:18.571Z,0.30
2023-02-24T09:17:47.385Z,0.40
2023-02-24T09:20:42.538Z,0.40
2023-02-24T09:23:20.611Z,0.40
2023-02-24T09:25:54.919Z,0.40
2023-02-24T09:28:29.794Z,0.40
2023-02-24T09:31:05.430Z,0.40
2023-02-24T09:33:42.197Z,0.43
2023-02-24T09:36:30.729Z,0.50
2023-02-24T09:39:01.265Z,0.40
2023-02-24T09:41:57.882Z,0.50
2023-02-24T09:44:39.854Z,0.50
2023-02-24T09:47:31.714Z,0.50
2023-02-24T09:50:59.055Z,0.40
2023-02-24T09:53:20.152Z,0.43
2023-02-24T09:56:01.145Z,0.50
2023-02-24T09:58:56.186Z,0.50
2023-02-24T10:01:44.407Z,0.40
2023-02-24T10:04:21.489Z,0.50
2023-02-24T10:07:08.823Z,0.50
2023-02-24T10:10:32.471Z,0.40
2023-02-24T10:13:30.827Z,0.50
2023-02-24T10:16:12.653Z,0.60
2023-02-24T10:19:16.997Z,0.50
2023-02-24T10:22:28.000Z,0.50
2023-02-24T10:25:11.920Z,0.50
2023-02-24T10:27:53.681Z,0.57
2023-02-24T10:30:44.216Z,0.50
2023-02-24T10:33:30.553Z,0.50
2023-02-24T10:36:19.810Z,0.50
2023-02-24T10:38:51.365Z,0.50
2023-02-24T10:41:20.866Z,0.50
2023-02-24T10:43:59.838Z,0.60
2023-02-24T10:46:42.446Z,0.50
2023-02-24T10:49:17.206Z,0.50
2023-02-24T10:51:54.079Z,0.50
2023-02-24T10:57:35.211Z,0.60
2023-02-24T11:00:31.837Z,0.60
2023-02-24T11:03:10.916Z,0.50
2023-02-24T11:06:06.219Z,0.60
2023-02-24T11:08:40.177Z,0.50
2023-02-24T11:11:54.895Z,0.60
2023-02-24T11:14:42.331Z,0.60
2023-02-24T11:17:27.480Z,0.50
2023-02-24T11:20:01.836Z,0.60
2023-02-24T11:22:36.229Z,0.60
2023-02-24T11:25:09.483Z,0.50
2023-02-24T11:27:43.591Z,0.50
2023-02-24T11:30:31.488Z,0.60
2023-02-24T11:33:09.837Z,0.50
2023-02-24T11:35:55.445Z,0.60
2023-02-24T11:38:35.332Z,0.60
2023-02-24T11:41:28.021Z,0.55
2023-02-24T11:44:28.971Z,0.50
2023-02-24T11:47:08.051Z,0.60
2023-02-24T11:50:05.255Z,0.50
2023-02-24T11:52:39.407Z,0.50
2023-02-24T11:55:28.039Z,0.50
2023-02-24T11:58:00.327Z,0.50
2023-02-24T12:00:34.771Z,0.50
2023-02-24T12:03:23.908Z,0.50
2023-02-24T12:05:57.646Z,0.50
2023-02-24T12:08:35.517Z,0.50
2023-02-24T12:11:24.353Z,0.60
2023-02-24T12:14:14.922Z,0.50
2023-02-24T12:16:49.428Z,0.50
2023-02-24T12:19:40.403Z,0.50
2023-02-24T12:22:16.936Z,0.50
2023-02-24T12:24:52.192Z,0.50
2023-02-24T12:27:45.217Z,0.50
2023-02-24T12:30:51.795Z,0.50
2023-02-24T12:33:44.419Z,0.50
2023-02-24T12:37:00.600Z,0.50
2023-02-24T12:39:50.164Z,0.50
2023-02-24T12:42:35.398Z,0.50
2023-02-24T12:45:33.374Z,0.50
2023-02-24T12:48:08.012Z,0.50
2023-02-24T12:50:52.168Z,0.50
2023-02-24T12:53:53.395Z,0.50
2023-02-24T12:56:41.535Z,0.50
2023-02-24T12:59:16.324Z,0.55
2023-02-24T13:02:06.131Z,0.60
2023-02-24T13:05:17.480Z,0.50
2023-02-24T13:08:24.546Z,0.43
2023-02-24T13:11:39.004Z,0.60
2023-02-24T13:14:35.480Z,0.50
2023-02-24T13:19:40.657Z,0.50
2023-02-24T13:22:33.508Z,0.50
2023-02-24T13:25:18.695Z,0.60
2023-02-24T13:28:03.409Z,0.50
2023-02-24T13:30:45.252Z,0.50
2023-02-24T13:33:20.130Z,0.50
2023-02-24T13:35:52.800Z,0.50
2023-02-24T13:38:37.621Z,0.50
2023-02-24T13:41:25.589Z,0.50
2023-02-24T13:44:00.424Z,0.50
2023-02-24T13:47:00.954Z,0.50
2023-02-24T13:49:39.729Z,0.50
2023-02-24T13:52:38.857Z,0.50
2023-02-24T13:55:22.508Z,0.50
2023-02-24T13:58:29.183Z,0.50
2023-02-24T14:01:07.981Z,0.50
2023-02-24T14:03:43.126Z,0.60
2023-02-24T14:06:25.721Z,0.50
2023-02-24T14:08:58.275Z,0.50
2023-02-24T14:11:31.812Z,0.50
2023-02-24T14:14:01.211Z,0.50
2023-02-24T14:16:40.584Z,0.50
2023-02-24T14:19:17.658Z,0.50
2023-02-24T14:21:57.027Z,0.50
2023-02-24T14:24:29.020Z,0.50
2023-02-24T14:27:00.203Z,0.50
2023-02-24T14:29:43.201Z,0.50
2023-02-24T14:32:25.065Z,0.50
2023-02-24T14:34:55.782Z,0.57
2023-02-24T14:37:31.000Z,0.50
2023-02-24T14:40:04.989Z,0.50
2023-02-24T14:42:34.030Z,0.60
2023-02-24T14:45:03.123Z,0.60
2023-02-24T14:47:34.064Z,0.50
2023-02-24T14:50:05.782Z,0.50
2023-02-24T14:53:11.224Z,0.57
2023-02-24T14:55:43.501Z,0.60
2023-02-24T14:58:22.871Z,0.50
2023-02-24T15:00:57.336Z,0.50
2023-02-24T15:03:32.872Z,0.50
2023-02-24T15:06:07.837Z,0.50
2023-02-24T15:08:39.401Z,0.50
2023-02-24T15:11:23.092Z,0.60
2023-02-24T15:13:56.554Z,0.50
2023-02-24T15:16:44.703Z,0.50
2023-02-24T15:19:38.507Z,0.50
2023-02-24T15:22:26.326Z,0.50
2023-02-24T15:25:11.218Z,0.50
2023-02-24T15:27:52.497Z,0.60
2023-02-24T15:30:54.609Z,0.50
2023-02-24T15:33:35.116Z,0.50
2023-02-24T15:36:09.731Z,0.50
2023-02-24T15:38:43.335Z,0.60
2023-02-24T15:41:13.874Z,0.50
2023-02-24T15:43:47.933Z,0.55
2023-02-24T15:46:20.061Z,0.50
2023-02-24T15:48:51.647Z,0.55
2023-02-24T15:51:38.825Z,0.50
2023-02-24T15:54:13.954Z,0.50
2023-02-24T15:56:43.714Z,0.60
2023-02-24T15:59:17.357Z,0.60
2023-02-24T16:01:46.893Z,0.60
2023-02-24T16:04:16.170Z,0.50
2023-02-24T16:06:55.108Z,0.60
2023-02-24T16:09:27.663Z,0.50
2023-02-24T16:11:57.368Z,0.50
2023-02-24T16:14:26.475Z,0.60
2023-02-24T16:16:55.759Z,0.60
2023-02-24T16:19:24.726Z,0.60
2023-02-24T16:21:53.876Z,0.60
2023-02-24T16:24:22.789Z,0.60
2023-02-24T16:26:51.694Z,0.50
2023-02-24T16:29:20.601Z,0.52
2023-02-24T16:31:49.688Z,0.50
2023-02-24T16:34:18.651Z,0.60
2023-02-24T16:36:48.190Z,0.60
2023-02-24T16:39:17.264Z,0.60
2023-02-24T16:41:46.162Z,0.52
2023-02-24T16:44:14.923Z,0.50
2023-02-24T16:46:45.487Z,0.60
2023-02-24T16:49:20.638Z,0.60
2023-02-24T16:51:49.536Z,0.50
2023-02-24T16:54:20.227Z,0.50
2023-02-24T16:56:50.498Z,0.60
2023-02-24T16:59:19.440Z,0.50
2023-02-24T17:01:49.344Z,0.50
2023-02-24T17:04:18.406Z,0.60
2023-02-24T17:06:48.504Z,0.50
2023-02-24T17:09:18.622Z,0.60
2023-02-24T17:11:47.451Z,0.60
2023-02-24T17:14:21.263Z,0.50
2023-02-24T17:16:50.151Z,0.60
2023-02-24T17:19:19.514Z,0.60
2023-02-24T17:21:48.317Z,0.60
2023-02-24T17:24:20.376Z,0.50
2023-02-24T17:26:49.476Z,0.52
2023-02-24T17:29:18.302Z,0.60
2023-02-24T17:31:47.566Z,0.60
2023-02-24T17:34:16.515Z,0.60
2023-02-24T17:36:45.379Z,0.60
2023-02-24T17:39:14.605Z,0.50
2023-02-24T17:41:43.389Z,0.55
2023-02-24T17:44:12.169Z,0.60
2023-02-24T17:46:41.111Z,0.60
2023-02-24T17:49:10.321Z,0.50
2023-02-24T17:51:39.123Z,0.50
2023-02-24T17:54:09.042Z,0.60
2023-02-24T17:56:38.020Z,0.50
2023-02-24T17:59:36.834Z,0.50
2023-02-24T18:02:06.818Z,0.60
2023-02-24T18:04:36.239Z,0.52
2023-02-24T18:07:05.169Z,0.60
2023-02-24T18:09:34.033Z,0.60
2023-02-24T18:12:03.233Z,0.60
2023-02-24T18:14:32.400Z,0.60
2023-02-24T18:17:01.549Z,0.60
2023-02-24T18:19:31.188Z,0.60
2023-02-24T18:22:00.015Z,0.60
2023-02-24T18:24:29.290Z,0.70
2023-02-24T18:26:58.294Z,0.60
2023-02-24T18:29:27.141Z,0.60
2023-02-24T18:31:56.330Z,0.60
2023-02-24T18:34:25.920Z,0.50
2023-02-24T18:36:54.670Z,0.50
2023-02-24T18:39:23.649Z,0.60
2023-02-24T18:41:52.573Z,0.60
2023-02-24T18:44:21.312Z,0.60
2023-02-24T18:46:50.260Z,0.60
2023-02-24T18:49:19.128Z,0.52
2023-02-24T18:51:49.361Z,0.60
2023-02-24T18:54:18.234Z,0.60
2023-02-24T18:56:47.462Z,0.60
2023-02-24T18:59:16.248Z,0.60
2023-02-24T19:01:45.740Z,0.60
2023-02-24T19:04:16.743Z,0.60
2023-02-24T19:06:49.576Z,0.60
2023-02-24T19:09:22.105Z,0.52
2023-02-24T19:11:52.763Z,0.50
2023-02-24T19:14:21.617Z,0.50
2023-02-24T19:16:50.523Z,0.50
2023-02-24T19:19:19.715Z,0.50
2023-02-24T19:21:50.076Z,0.50
2023-02-24T19:24:18.894Z,0.50
2023-02-24T19:26:48.181Z,0.60
2023-02-24T19:29:17.813Z,0.50
2023-02-24T19:31:47.073Z,0.60
2023-02-24T19:34:16.019Z,0.60
2023-02-24T19:36:44.881Z,0.60
2023-02-24T19:39:15.859Z,0.60
2023-02-24T19:41:45.138Z,0.60
2023-02-24T19:44:13.960Z,0.60
2023-02-24T19:46:43.648Z,0.60
2023-02-24T19:49:12.465Z,0.60
2023-02-24T19:51:41.301Z,0.52
2023-02-24T19:54:14.441Z,0.60
2023-02-24T19:56:44.533Z,0.50
2023-02-24T19:59:14.149Z,0.60
2023-02-24T20:01:44.466Z,0.60
2023-02-24T20:04:13.578Z,0.60
2023-02-24T20:06:44.080Z,0.52
2023-02-24T20:09:18.464Z,0.60
2023-02-24T20:11:48.382Z,0.50
2023-02-24T20:14:18.860Z,0.60
2023-02-24T20:16:48.395Z,0.50
2023-02-24T20:19:18.669Z,0.60
2023-02-24T20:21:48.374Z,0.60
2023-02-24T20:24:18.609Z,0.60
2023-02-24T20:26:50.088Z,0.60
2023-02-24T20:29:21.545Z,0.60
2023-02-24T20:31:50.882Z,0.60
2023-02-24T20:34:19.878Z,0.60
2023-02-24T20:36:48.894Z,0.60
2023-02-24T20:39:17.964Z,0.60
2023-02-24T20:41:47.085Z,0.60
2023-02-24T20:44:15.912Z,0.60
2023-02-24T20:46:44.806Z,0.60
2023-02-24T20:49:18.313Z,0.60
2023-02-24T20:51:47.225Z,0.60
2023-02-24T20:54:16.570Z,0.60
2023-02-24T20:56:46.653Z,0.60
2023-02-24T20:59:18.324Z,0.60
2023-02-24T21:01:49.523Z,0.70
2023-02-24T21:04:22.629Z,0.60
2023-02-24T21:06:54.868Z,0.60
2023-02-24T21:09:23.750Z,0.60
2023-02-24T21:11:52.564Z,0.60
2023-02-24T21:14:22.911Z,0.60
2023-02-24T21:16:51.713Z,0.60
2023-02-24T21:19:20.792Z,0.60
2023-02-24T21:21:49.645Z,0.60
2023-02-24T21:24:18.799Z,0.60
2023-02-24T21:26:48.010Z,0.60
2023-02-24T21:29:17.234Z,0.50
2023-02-24T21:31:46.334Z,0.65
2023-02-24T21:34:17.294Z,0.60
2023-02-24T21:36:46.358Z,0.60
2023-02-24T21:39:15.277Z,0.60
2023-02-24T21:41:45.030Z,0.60
2023-02-24T21:44:18.025Z,0.60
2023-02-24T21:46:47.051Z,0.60
2023-02-24T21:49:16.389Z,0.60
2023-02-24T21:51:49.607Z,0.60
2023-02-24T21:54:18.641Z,0.60
2023-02-24T21:56:47.385Z,0.60
2023-02-24T21:59:16.256Z,0.60
2023-02-24T22:01:46.525Z,0.60
2023-02-24T22:04:19.543Z,0.60
2023-02-24T22:06:48.470Z,0.60
2023-02-24T22:09:20.841Z,0.60
2023-02-24T22:11:50.552Z,0.60
2023-02-24T22:14:19.487Z,0.60
2023-02-24T22:16:48.366Z,0.60
2023-02-24T22:19:20.156Z,0.60
2023-02-24T22:21:48.982Z,0.60
2023-02-24T22:24:19.033Z,0.60
2023-02-24T22:26:47.911Z,0.60
2023-02-24T22:29:16.848Z,0.68
2023-02-24T22:31:49.055Z,0.60
2023-02-24T22:34:18.796Z,0.60
2023-02-24T22:36:47.614Z,0.60
2023-02-24T22:39:17.574Z,0.63
2023-02-24T22:41:48.335Z,0.65
2023-02-24T22:44:19.748Z,0.60
2023-02-24T22:46:48.919Z,0.60
2023-02-24T22:49:18.044Z,0.60
2023-02-24T22:51:46.938Z,0.70
2023-02-24T22:54:15.824Z,0.60
2023-02-24T22:56:44.670Z,0.60
2023-02-24T22:59:14.299Z,0.60
2023-02-24T23:01:43.762Z,0.60
2023-02-24T23:04:18.883Z,0.60
2023-02-24T23:06:48.254Z,0.60
2023-02-24T23:09:20.478Z,0.60
2023-02-24T23:11:49.638Z,0.60
2023-02-24T23:14:18.770Z,0.60
2023-02-24T23:16:54.179Z,0.60
2023-02-24T23:19:23.977Z,0.60
2023-02-24T23:21:54.487Z,0.60
2023-02-24T23:24:24.807Z,0.60
2023-02-24T23:26:55.244Z,0.60
2023-02-24T23:29:25.684Z,0.60
2023-02-24T23:31:54.885Z,0.60
2023-02-24T23:34:24.660Z,0.60
2023-02-24T23:36:53.790Z,0.50
2023-02-24T23:39:24.263Z,0.60
2023-02-24T23:41:57.138Z,0.60
2023-02-24T23:44:26.472Z,0.60
2023-02-24T23:46:58.700Z,0.60
2023-02-24T23:49:39.120Z,0.70
2023-02-24T23:52:14.169Z,0.68
2023-02-24T23:54:42.994Z,0.60
2023-02-24T23:57:12.094Z,0.60
2023-02-24T23:59:40.932Z,0.60
